sensor_id;sensor_type;location;lat;lon;timestamp;temperature;humidity
51661;DHT22;37741;49.748;8.490;2023-10-09T00:00:53;17.50;79.80
51661;DHT22;37741;49.748;8.490;2023-10-09T00:03:27;17.40;79.60
51661;DHT22;37741;49.748;8.490;2023-10-09T00:05:53;17.40;80.30
51661;DHT22;37741;49.748;8.490;2023-10-09T00:08:20;17.40;79.60
51661;DHT22;37741;49.748;8.490;2023-10-09T00:11:04;17.40;79.60
51661;DHT22;37741;49.748;8.490;2023-10-09T00:13:52;17.40;79.60
51661;DHT22;37741;49.748;8.490;2023-10-09T00:16:23;17.30;79.60
51661;DHT22;37741;49.748;8.490;2023-10-09T00:19:02;17.30;79.50
51661;DHT22;37741;49.748;8.490;2023-10-09T00:21:41;17.20;79.60
51661;DHT22;37741;49.748;8.490;2023-10-09T00:24:07;17.20;79.60
51661;DHT22;37741;49.748;8.490;2023-10-09T00:26:40;17.30;79.70
51661;DHT22;37741;49.748;8.490;2023-10-09T00:29:10;17.20;79.70
51661;DHT22;37741;49.748;8.490;2023-10-09T00:31:53;17.20;79.70
51661;DHT22;37741;49.748;8.490;2023-10-09T00:34:38;17.20;79.70
51661;DHT22;37741;49.748;8.490;2023-10-09T00:37:07;17.10;79.60
51661;DHT22;37741;49.748;8.490;2023-10-09T00:39:42;17.10;79.80
51661;DHT22;37741;49.748;8.490;2023-10-09T00:42:11;17.10;79.80
51661;DHT22;37741;49.748;8.490;2023-10-09T00:44:51;17.10;79.80
51661;DHT22;37741;49.748;8.490;2023-10-09T00:47:17;17.10;79.90
51661;DHT22;37741;49.748;8.490;2023-10-09T00:49:54;17.10;80.00
51661;DHT22;37741;49.748;8.490;2023-10-09T00:52:33;17.10;79.80
51661;DHT22;37741;49.748;8.490;2023-10-09T00:55:10;17.00;79.90
51661;DHT22;37741;49.748;8.490;2023-10-09T00:57:45;17.00;79.90
51661;DHT22;37741;49.748;8.490;2023-10-09T01:00:19;17.00;80.00
51661;DHT22;37741;49.748;8.490;2023-10-09T01:03:03;17.00;80.00
51661;DHT22;37741;49.748;8.490;2023-10-09T01:05:50;17.00;80.20
51661;DHT22;37741;49.748;8.490;2023-10-09T01:08:27;16.90;80.10
51661;DHT22;37741;49.748;8.490;2023-10-09T01:11:13;16.90;80.10
51661;DHT22;37741;49.748;8.490;2023-10-09T01:13:49;16.90;80.10
51661;DHT22;37741;49.748;8.490;2023-10-09T01:16:23;16.90;80.00
51661;DHT22;37741;49.748;8.490;2023-10-09T01:18:53;16.90;80.00
51661;DHT22;37741;49.748;8.490;2023-10-09T01:21:22;16.90;79.90
51661;DHT22;37741;49.748;8.490;2023-10-09T01:23:57;16.90;80.10
51661;DHT22;37741;49.748;8.490;2023-10-09T01:26:37;16.80;80.10
51661;DHT22;37741;49.748;8.490;2023-10-09T01:29:19;16.80;80.10
51661;DHT22;37741;49.748;8.490;2023-10-09T01:31:54;16.80;80.10
51661;DHT22;37741;49.748;8.490;2023-10-09T01:34:24;16.80;80.20
51661;DHT22;37741;49.748;8.490;2023-10-09T01:36:53;16.80;80.30
51661;DHT22;37741;49.748;8.490;2023-10-09T01:39:30;16.70;80.20
51661;DHT22;37741;49.748;8.490;2023-10-09T01:41:56;16.80;80.20
51661;DHT22;37741;49.748;8.490;2023-10-09T01:44:27;16.80;80.00
51661;DHT22;37741;49.748;8.490;2023-10-09T01:47:01;16.70;80.00
51661;DHT22;37741;49.748;8.490;2023-10-09T01:49:35;16.70;80.00
51661;DHT22;37741;49.748;8.490;2023-10-09T01:52:03;16.70;80.10
51661;DHT22;37741;49.748;8.490;2023-10-09T01:54:39;16.70;80.10
51661;DHT22;37741;49.748;8.490;2023-10-09T01:57:07;16.70;80.20
51661;DHT22;37741;49.748;8.490;2023-10-09T01:59:38;16.70;80.20
51661;DHT22;37741;49.748;8.490;2023-10-09T02:02:09;16.70;80.40
51661;DHT22;37741;49.748;8.490;2023-10-09T02:04:51;16.60;80.20
51661;DHT22;37741;49.748;8.490;2023-10-09T02:07:17;16.70;80.20
51661;DHT22;37741;49.748;8.490;2023-10-09T02:09:48;16.60;80.80
51661;DHT22;37741;49.748;8.490;2023-10-09T02:12:13;16.60;80.10
51661;DHT22;37741;49.748;8.490;2023-10-09T02:14:40;16.60;80.10
51661;DHT22;37741;49.748;8.490;2023-10-09T02:17:07;16.60;80.10
51661;DHT22;37741;49.748;8.490;2023-10-09T02:19:43;16.60;80.00
51661;DHT22;37741;49.748;8.490;2023-10-09T02:22:14;16.60;80.10
51661;DHT22;37741;49.748;8.490;2023-10-09T02:24:44;16.60;80.10
51661;DHT22;37741;49.748;8.490;2023-10-09T02:27:23;16.50;80.00
51661;DHT22;37741;49.748;8.490;2023-10-09T02:30:07;16.50;80.10
51661;DHT22;37741;49.748;8.490;2023-10-09T02:32:45;16.50;80.10
51661;DHT22;37741;49.748;8.490;2023-10-09T02:35:20;16.50;80.40
51661;DHT22;37741;49.748;8.490;2023-10-09T02:38:02;16.50;80.40
51661;DHT22;37741;49.748;8.490;2023-10-09T02:40:31;16.50;80.50
51661;DHT22;37741;49.748;8.490;2023-10-09T02:43:07;16.40;80.30
51661;DHT22;37741;49.748;8.490;2023-10-09T02:45:38;16.40;80.30
51661;DHT22;37741;49.748;8.490;2023-10-09T02:48:12;16.50;80.30
51661;DHT22;37741;49.748;8.490;2023-10-09T02:50:39;16.40;80.30
51661;DHT22;37741;49.748;8.490;2023-10-09T02:53:05;16.40;80.50
51661;DHT22;37741;49.748;8.490;2023-10-09T02:55:35;16.40;80.60
51661;DHT22;37741;49.748;8.490;2023-10-09T02:58:04;16.30;80.60
51661;DHT22;37741;49.748;8.490;2023-10-09T03:00:32;16.40;80.70
51661;DHT22;37741;49.748;8.490;2023-10-09T03:03:01;16.30;80.70
51661;DHT22;37741;49.748;8.490;2023-10-09T03:05:30;16.30;80.70
51661;DHT22;37741;49.748;8.490;2023-10-09T03:07:55;16.30;80.80
51661;DHT22;37741;49.748;8.490;2023-10-09T03:10:25;16.30;80.70
51661;DHT22;37741;49.748;8.490;2023-10-09T03:12:51;16.30;80.80
51661;DHT22;37741;49.748;8.490;2023-10-09T03:15:22;16.30;80.80
51661;DHT22;37741;49.748;8.490;2023-10-09T03:17:48;16.30;80.90
51661;DHT22;37741;49.748;8.490;2023-10-09T03:20:14;16.30;80.80
51661;DHT22;37741;49.748;8.490;2023-10-09T03:22:43;16.30;80.90
51661;DHT22;37741;49.748;8.490;2023-10-09T03:25:10;16.30;81.50
51661;DHT22;37741;49.748;8.490;2023-10-09T03:27:54;16.20;80.80
51661;DHT22;37741;49.748;8.490;2023-10-09T03:30:21;16.20;80.90
51661;DHT22;37741;49.748;8.490;2023-10-09T03:32:49;16.20;80.90
51661;DHT22;37741;49.748;8.490;2023-10-09T03:35:21;16.20;80.90
51661;DHT22;37741;49.748;8.490;2023-10-09T03:37:53;16.20;80.90
51661;DHT22;37741;49.748;8.490;2023-10-09T03:40:23;16.20;80.90
51661;DHT22;37741;49.748;8.490;2023-10-09T03:42:49;16.20;81.00
51661;DHT22;37741;49.748;8.490;2023-10-09T03:45:14;16.20;81.00
51661;DHT22;37741;49.748;8.490;2023-10-09T03:48:00;16.10;80.90
51661;DHT22;37741;49.748;8.490;2023-10-09T03:50:41;16.10;81.00
51661;DHT22;37741;49.748;8.490;2023-10-09T03:53:08;16.10;81.00
51661;DHT22;37741;49.748;8.490;2023-10-09T03:55:37;16.10;81.00
51661;DHT22;37741;49.748;8.490;2023-10-09T03:58:09;16.10;81.00
51661;DHT22;37741;49.748;8.490;2023-10-09T04:00:37;16.10;81.00
51661;DHT22;37741;49.748;8.490;2023-10-09T04:03:15;16.10;81.00
51661;DHT22;37741;49.748;8.490;2023-10-09T04:05:41;16.10;81.10
51661;DHT22;37741;49.748;8.490;2023-10-09T04:08:09;16.10;81.00
51661;DHT22;37741;49.748;8.490;2023-10-09T04:10:55;16.10;81.00
51661;DHT22;37741;49.748;8.490;2023-10-09T04:13:27;16.00;81.00
51661;DHT22;37741;49.748;8.490;2023-10-09T04:16:02;16.10;81.10
51661;DHT22;37741;49.748;8.490;2023-10-09T04:18:36;16.00;81.10
51661;DHT22;37741;49.748;8.490;2023-10-09T04:21:05;16.00;81.10
51661;DHT22;37741;49.748;8.490;2023-10-09T04:24:02;16.00;81.10
51661;DHT22;37741;49.748;8.490;2023-10-09T04:26:54;16.00;81.20
51661;DHT22;37741;49.748;8.490;2023-10-09T04:29:23;16.00;81.10
51661;DHT22;37741;49.748;8.490;2023-10-09T04:31:56;16.00;81.00
51661;DHT22;37741;49.748;8.490;2023-10-09T04:34:24;16.00;81.00
51661;DHT22;37741;49.748;8.490;2023-10-09T04:36:53;15.90;81.10
51661;DHT22;37741;49.748;8.490;2023-10-09T04:39:38;15.90;81.10
51661;DHT22;37741;49.748;8.490;2023-10-09T04:42:11;15.90;81.20
51661;DHT22;37741;49.748;8.490;2023-10-09T04:45:03;15.90;81.20
51661;DHT22;37741;49.748;8.490;2023-10-09T04:47:32;15.90;81.20
51661;DHT22;37741;49.748;8.490;2023-10-09T04:50:09;15.90;81.30
51661;DHT22;37741;49.748;8.490;2023-10-09T04:52:44;15.90;81.40
51661;DHT22;37741;49.748;8.490;2023-10-09T04:55:10;15.90;81.30
51661;DHT22;37741;49.748;8.490;2023-10-09T04:57:37;15.90;81.30
51661;DHT22;37741;49.748;8.490;2023-10-09T05:00:10;15.90;81.40
51661;DHT22;37741;49.748;8.490;2023-10-09T05:02:52;15.90;81.40
51661;DHT22;37741;49.748;8.490;2023-10-09T05:05:39;15.80;81.30
51661;DHT22;37741;49.748;8.490;2023-10-09T05:10:48;15.80;81.30
51661;DHT22;37741;49.748;8.490;2023-10-09T05:13:31;15.80;81.50
51661;DHT22;37741;49.748;8.490;2023-10-09T05:16:16;15.80;81.40
51661;DHT22;37741;49.748;8.490;2023-10-09T05:18:55;15.80;81.50
51661;DHT22;37741;49.748;8.490;2023-10-09T05:21:37;15.80;81.40
51661;DHT22;37741;49.748;8.490;2023-10-09T05:24:12;15.80;81.50
51661;DHT22;37741;49.748;8.490;2023-10-09T05:29:20;15.80;81.50
51661;DHT22;37741;49.748;8.490;2023-10-09T05:31:58;15.70;81.60
51661;DHT22;37741;49.748;8.490;2023-10-09T05:34:41;15.80;81.60
51661;DHT22;37741;49.748;8.490;2023-10-09T05:37:32;15.70;81.60
51661;DHT22;37741;49.748;8.490;2023-10-09T05:39:59;15.70;81.60
51661;DHT22;37741;49.748;8.490;2023-10-09T05:42:35;15.70;81.60
51661;DHT22;37741;49.748;8.490;2023-10-09T05:45:13;15.70;81.70
51661;DHT22;37741;49.748;8.490;2023-10-09T05:47:49;15.70;81.60
51661;DHT22;37741;49.748;8.490;2023-10-09T05:50:25;15.70;81.60
51661;DHT22;37741;49.748;8.490;2023-10-09T05:52:55;15.70;81.70
51661;DHT22;37741;49.748;8.490;2023-10-09T05:55:22;15.60;81.60
51661;DHT22;37741;49.748;8.490;2023-10-09T05:57:55;15.70;81.80
51661;DHT22;37741;49.748;8.490;2023-10-09T06:00:39;15.70;81.70
51661;DHT22;37741;49.748;8.490;2023-10-09T06:03:24;15.70;81.80
51661;DHT22;37741;49.748;8.490;2023-10-09T06:05:54;15.60;81.80
51661;DHT22;37741;49.748;8.490;2023-10-09T06:08:28;15.70;81.80
51661;DHT22;37741;49.748;8.490;2023-10-09T06:11:10;15.70;81.80
51661;DHT22;37741;49.748;8.490;2023-10-09T06:13:56;15.60;81.80
51661;DHT22;37741;49.748;8.490;2023-10-09T06:16:30;15.60;81.80
51661;DHT22;37741;49.748;8.490;2023-10-09T06:19:14;15.60;81.80
51661;DHT22;37741;49.748;8.490;2023-10-09T06:21:54;15.60;81.80
51661;DHT22;37741;49.748;8.490;2023-10-09T06:24:55;15.60;82.00
51661;DHT22;37741;49.748;8.490;2023-10-09T06:27:22;15.60;81.90
51661;DHT22;37741;49.748;8.490;2023-10-09T06:29:58;15.60;81.90
51661;DHT22;37741;49.748;8.490;2023-10-09T06:32:44;15.60;82.00
51661;DHT22;37741;49.748;8.490;2023-10-09T06:35:17;15.60;82.00
51661;DHT22;37741;49.748;8.490;2023-10-09T06:37:57;15.60;82.10
51661;DHT22;37741;49.748;8.490;2023-10-09T06:40:34;15.60;82.10
51661;DHT22;37741;49.748;8.490;2023-10-09T06:43:03;15.60;82.10
51661;DHT22;37741;49.748;8.490;2023-10-09T06:45:57;15.50;82.10
51661;DHT22;37741;49.748;8.490;2023-10-09T06:48:41;15.60;82.10
51661;DHT22;37741;49.748;8.490;2023-10-09T06:51:11;15.60;82.10
51661;DHT22;37741;49.748;8.490;2023-10-09T06:53:53;15.50;82.10
51661;DHT22;37741;49.748;8.490;2023-10-09T06:56:26;15.50;82.10
51661;DHT22;37741;49.748;8.490;2023-10-09T06:58:52;15.60;82.20
51661;DHT22;37741;49.748;8.490;2023-10-09T07:01:26;15.50;82.20
51661;DHT22;37741;49.748;8.490;2023-10-09T07:04:05;15.50;82.20
51661;DHT22;37741;49.748;8.490;2023-10-09T07:06:50;15.50;82.20
51661;DHT22;37741;49.748;8.490;2023-10-09T07:09:17;15.50;82.20
51661;DHT22;37741;49.748;8.490;2023-10-09T07:11:46;15.50;82.30
51661;DHT22;37741;49.748;8.490;2023-10-09T07:14:20;15.50;82.20
51661;DHT22;37741;49.748;8.490;2023-10-09T07:16:59;15.50;82.30
51661;DHT22;37741;49.748;8.490;2023-10-09T07:19:31;15.50;82.40
51661;DHT22;37741;49.748;8.490;2023-10-09T07:22:03;15.50;82.40
51661;DHT22;37741;49.748;8.490;2023-10-09T07:24:32;15.50;82.40
51661;DHT22;37741;49.748;8.490;2023-10-09T07:33:23;15.50;82.40
51661;DHT22;37741;49.748;8.490;2023-10-09T07:36:01;15.50;82.50
51661;DHT22;37741;49.748;8.490;2023-10-09T07:38:31;15.50;82.50
51661;DHT22;37741;49.748;8.490;2023-10-09T07:41:03;15.50;82.50
51661;DHT22;37741;49.748;8.490;2023-10-09T07:43:39;15.50;82.60
51661;DHT22;37741;49.748;8.490;2023-10-09T07:46:09;15.50;82.60
51661;DHT22;37741;49.748;8.490;2023-10-09T07:49:00;15.50;82.50
51661;DHT22;37741;49.748;8.490;2023-10-09T07:51:37;15.50;82.60
51661;DHT22;37741;49.748;8.490;2023-10-09T07:54:03;15.60;82.70
51661;DHT22;37741;49.748;8.490;2023-10-09T07:56:39;15.50;82.60
51661;DHT22;37741;49.748;8.490;2023-10-09T07:59:09;15.50;82.60
51661;DHT22;37741;49.748;8.490;2023-10-09T08:01:41;15.50;82.60
51661;DHT22;37741;49.748;8.490;2023-10-09T08:04:28;15.60;82.70
51661;DHT22;37741;49.748;8.490;2023-10-09T08:07:08;15.50;82.70
51661;DHT22;37741;49.748;8.490;2023-10-09T08:09:55;15.60;82.70
51661;DHT22;37741;49.748;8.490;2023-10-09T08:12:39;15.60;82.70
51661;DHT22;37741;49.748;8.490;2023-10-09T08:15:24;15.60;82.70
51661;DHT22;37741;49.748;8.490;2023-10-09T08:18:13;15.60;82.70
51661;DHT22;37741;49.748;8.490;2023-10-09T08:20:53;15.60;82.80
51661;DHT22;37741;49.748;8.490;2023-10-09T08:23:24;15.60;82.70
51661;DHT22;37741;49.748;8.490;2023-10-09T08:26:14;15.60;82.80
51661;DHT22;37741;49.748;8.490;2023-10-09T08:28:41;15.70;82.80
51661;DHT22;37741;49.748;8.490;2023-10-09T08:31:15;15.60;83.20
51661;DHT22;37741;49.748;8.490;2023-10-09T08:33:59;15.70;83.10
51661;DHT22;37741;49.748;8.490;2023-10-09T08:36:25;15.70;83.10
51661;DHT22;37741;49.748;8.490;2023-10-09T08:38:54;15.70;82.90
51661;DHT22;37741;49.748;8.490;2023-10-09T08:41:24;15.70;82.90
51661;DHT22;37741;49.748;8.490;2023-10-09T08:43:56;15.70;82.90
51661;DHT22;37741;49.748;8.490;2023-10-09T08:46:27;15.70;83.00
51661;DHT22;37741;49.748;8.490;2023-10-09T08:48:55;15.70;83.00
51661;DHT22;37741;49.748;8.490;2023-10-09T08:51:21;15.80;83.00
51661;DHT22;37741;49.748;8.490;2023-10-09T08:53:47;15.80;83.00
51661;DHT22;37741;49.748;8.490;2023-10-09T08:56:14;15.80;83.00
51661;DHT22;37741;49.748;8.490;2023-10-09T08:58:49;15.80;83.00
51661;DHT22;37741;49.748;8.490;2023-10-09T09:01:17;15.80;83.20
51661;DHT22;37741;49.748;8.490;2023-10-09T09:03:45;15.80;83.40
51661;DHT22;37741;49.748;8.490;2023-10-09T09:06:11;15.80;83.00
51661;DHT22;37741;49.748;8.490;2023-10-09T09:08:37;15.80;82.90
51661;DHT22;37741;49.748;8.490;2023-10-09T09:11:23;15.90;83.10
51661;DHT22;37741;49.748;8.490;2023-10-09T09:16:22;15.90;83.30
51661;DHT22;37741;49.748;8.490;2023-10-09T09:18:58;15.90;83.50
51661;DHT22;37741;49.748;8.490;2023-10-09T09:21:41;15.90;83.60
51661;DHT22;37741;49.748;8.490;2023-10-09T09:24:09;15.90;83.90
51661;DHT22;37741;49.748;8.490;2023-10-09T09:26:48;16.00;83.90
51661;DHT22;37741;49.748;8.490;2023-10-09T09:32:02;16.00;83.80
51661;DHT22;37741;49.748;8.490;2023-10-09T09:34:52;16.00;83.80
51661;DHT22;37741;49.748;8.490;2023-10-09T09:37:26;16.10;84.30
51661;DHT22;37741;49.748;8.490;2023-10-09T09:40:02;16.00;84.80
51661;DHT22;37741;49.748;8.490;2023-10-09T09:42:43;16.10;83.80
51661;DHT22;37741;49.748;8.490;2023-10-09T09:45:14;16.10;83.90
51661;DHT22;37741;49.748;8.490;2023-10-09T09:47:43;16.10;83.90
51661;DHT22;37741;49.748;8.490;2023-10-09T09:50:12;16.10;84.00
51661;DHT22;37741;49.748;8.490;2023-10-09T09:52:50;16.20;84.20
51661;DHT22;37741;49.748;8.490;2023-10-09T09:55:19;16.20;84.60
51661;DHT22;37741;49.748;8.490;2023-10-09T09:57:48;16.20;83.90
51661;DHT22;37741;49.748;8.490;2023-10-09T10:00:20;16.20;83.70
51661;DHT22;37741;49.748;8.490;2023-10-09T10:02:57;16.20;84.80
51661;DHT22;37741;49.748;8.490;2023-10-09T10:05:26;16.30;83.70
51661;DHT22;37741;49.748;8.490;2023-10-09T10:07:59;16.20;83.50
51661;DHT22;37741;49.748;8.490;2023-10-09T10:10:41;16.30;82.80
51661;DHT22;37741;49.748;8.490;2023-10-09T10:13:13;16.30;82.70
51661;DHT22;37741;49.748;8.490;2023-10-09T10:18:23;16.40;82.70
51661;DHT22;37741;49.748;8.490;2023-10-09T10:24:04;16.40;82.20
51661;DHT22;37741;49.748;8.490;2023-10-09T10:26:35;16.40;82.20
51661;DHT22;37741;49.748;8.490;2023-10-09T10:29:14;16.40;82.50
51661;DHT22;37741;49.748;8.490;2023-10-09T10:32:00;16.40;82.30
51661;DHT22;37741;49.748;8.490;2023-10-09T10:34:27;16.50;82.00
51661;DHT22;37741;49.748;8.490;2023-10-09T10:37:41;16.50;82.70
51661;DHT22;37741;49.748;8.490;2023-10-09T10:40:25;16.50;83.90
51661;DHT22;37741;49.748;8.490;2023-10-09T10:43:20;16.50;83.80
51661;DHT22;37741;49.748;8.490;2023-10-09T10:46:05;16.60;84.50
51661;DHT22;37741;49.748;8.490;2023-10-09T10:48:39;16.60;84.90
51661;DHT22;37741;49.748;8.490;2023-10-09T10:51:05;16.60;84.30
51661;DHT22;37741;49.748;8.490;2023-10-09T10:53:31;16.70;84.30
51661;DHT22;37741;49.748;8.490;2023-10-09T10:56:15;16.70;84.00
51661;DHT22;37741;49.748;8.490;2023-10-09T10:58:41;16.80;83.70
51661;DHT22;37741;49.748;8.490;2023-10-09T11:01:19;16.80;83.40
51661;DHT22;37741;49.748;8.490;2023-10-09T11:03:48;16.80;83.20
51661;DHT22;37741;49.748;8.490;2023-10-09T11:09:05;16.80;83.10
51661;DHT22;37741;49.748;8.490;2023-10-09T11:11:50;16.90;83.20
51661;DHT22;37741;49.748;8.490;2023-10-09T11:14:47;16.90;83.00
51661;DHT22;37741;49.748;8.490;2023-10-09T11:17:35;16.90;82.90
51661;DHT22;37741;49.748;8.490;2023-10-09T11:20:03;17.00;83.00
51661;DHT22;37741;49.748;8.490;2023-10-09T11:22:55;17.00;83.20
51661;DHT22;37741;49.748;8.490;2023-10-09T11:25:40;17.00;83.10
51661;DHT22;37741;49.748;8.490;2023-10-09T11:28:19;17.10;84.00
51661;DHT22;37741;49.748;8.490;2023-10-09T11:31:17;17.10;84.00
51661;DHT22;37741;49.748;8.490;2023-10-09T11:33:51;17.20;83.80
51661;DHT22;37741;49.748;8.490;2023-10-09T11:36:21;17.20;83.60
51661;DHT22;37741;49.748;8.490;2023-10-09T11:38:58;17.20;83.30
51661;DHT22;37741;49.748;8.490;2023-10-09T11:41:41;17.30;83.30
51661;DHT22;37741;49.748;8.490;2023-10-09T11:44:07;17.30;82.80
51661;DHT22;37741;49.748;8.490;2023-10-09T11:47:00;17.40;82.50
51661;DHT22;37741;49.748;8.490;2023-10-09T11:49:55;17.40;83.50
51661;DHT22;37741;49.748;8.490;2023-10-09T11:52:30;17.50;83.00
51661;DHT22;37741;49.748;8.490;2023-10-09T11:55:11;17.50;82.10
51661;DHT22;37741;49.748;8.490;2023-10-09T11:57:41;17.60;81.60
51661;DHT22;37741;49.748;8.490;2023-10-09T12:00:07;17.60;81.80
51661;DHT22;37741;49.748;8.490;2023-10-09T12:02:52;17.60;81.40
51661;DHT22;37741;49.748;8.490;2023-10-09T12:05:18;17.70;81.30
51661;DHT22;37741;49.748;8.490;2023-10-09T12:07:47;17.70;81.20
51661;DHT22;37741;49.748;8.490;2023-10-09T12:10:21;17.80;81.30
51661;DHT22;37741;49.748;8.490;2023-10-09T12:12:55;17.80;81.00
51661;DHT22;37741;49.748;8.490;2023-10-09T12:15:24;17.90;80.80
51661;DHT22;37741;49.748;8.490;2023-10-09T12:17:50;17.90;80.50
51661;DHT22;37741;49.748;8.490;2023-10-09T12:20:19;18.00;80.30
51661;DHT22;37741;49.748;8.490;2023-10-09T12:23:03;18.00;80.30
51661;DHT22;37741;49.748;8.490;2023-10-09T12:25:35;18.10;80.00
51661;DHT22;37741;49.748;8.490;2023-10-09T12:28:02;18.10;79.90
51661;DHT22;37741;49.748;8.490;2023-10-09T12:30:31;18.20;79.60
51661;DHT22;37741;49.748;8.490;2023-10-09T12:33:04;18.30;79.40
51661;DHT22;37741;49.748;8.490;2023-10-09T12:35:36;18.30;79.10
51661;DHT22;37741;49.748;8.490;2023-10-09T12:38:03;18.40;78.70
51661;DHT22;37741;49.748;8.490;2023-10-09T12:40:34;18.40;78.50
51661;DHT22;37741;49.748;8.490;2023-10-09T12:43:00;18.40;78.20
51661;DHT22;37741;49.748;8.490;2023-10-09T12:45:26;18.50;77.80
51661;DHT22;37741;49.748;8.490;2023-10-09T12:47:55;18.50;77.70
51661;DHT22;37741;49.748;8.490;2023-10-09T12:50:25;18.50;77.50
51661;DHT22;37741;49.748;8.490;2023-10-09T12:52:55;18.60;77.50
51661;DHT22;37741;49.748;8.490;2023-10-09T12:55:21;18.60;77.40
51661;DHT22;37741;49.748;8.490;2023-10-09T12:57:50;18.70;77.30
51661;DHT22;37741;49.748;8.490;2023-10-09T13:00:17;18.70;77.10
51661;DHT22;37741;49.748;8.490;2023-10-09T13:02:51;18.80;76.70
51661;DHT22;37741;49.748;8.490;2023-10-09T13:05:16;18.80;76.30
51661;DHT22;37741;49.748;8.490;2023-10-09T13:07:52;18.80;76.30
51661;DHT22;37741;49.748;8.490;2023-10-09T13:10:19;18.90;75.60
51661;DHT22;37741;49.748;8.490;2023-10-09T13:12:45;18.90;75.00
51661;DHT22;37741;49.748;8.490;2023-10-09T13:15:11;19.00;75.10
51661;DHT22;37741;49.748;8.490;2023-10-09T13:17:37;19.00;75.00
51661;DHT22;37741;49.748;8.490;2023-10-09T13:20:04;19.00;74.80
51661;DHT22;37741;49.748;8.490;2023-10-09T13:22:39;19.10;74.30
51661;DHT22;37741;49.748;8.490;2023-10-09T13:25:10;19.10;73.70
51661;DHT22;37741;49.748;8.490;2023-10-09T13:27:42;19.20;74.00
51661;DHT22;37741;49.748;8.490;2023-10-09T13:30:13;19.20;73.20
51661;DHT22;37741;49.748;8.490;2023-10-09T13:32:48;19.20;73.00
51661;DHT22;37741;49.748;8.490;2023-10-09T13:35:18;19.30;72.70
51661;DHT22;37741;49.748;8.490;2023-10-09T13:37:44;19.30;72.10
51661;DHT22;37741;49.748;8.490;2023-10-09T13:40:20;19.40;71.10
51661;DHT22;37741;49.748;8.490;2023-10-09T13:42:53;19.40;71.10
51661;DHT22;37741;49.748;8.490;2023-10-09T13:45:27;19.40;71.50
51661;DHT22;37741;49.748;8.490;2023-10-09T13:48:02;19.50;71.90
51661;DHT22;37741;49.748;8.490;2023-10-09T13:50:30;19.60;71.70
51661;DHT22;37741;49.748;8.490;2023-10-09T13:52:59;19.70;71.80
51661;DHT22;37741;49.748;8.490;2023-10-09T13:55:25;19.70;72.00
51661;DHT22;37741;49.748;8.490;2023-10-09T13:57:59;19.70;71.60
51661;DHT22;37741;49.748;8.490;2023-10-09T14:00:25;19.70;71.60
51661;DHT22;37741;49.748;8.490;2023-10-09T14:03:00;19.80;70.90
51661;DHT22;37741;49.748;8.490;2023-10-09T14:05:28;19.80;70.90
51661;DHT22;37741;49.748;8.490;2023-10-09T14:07:53;19.90;71.00
51661;DHT22;37741;49.748;8.490;2023-10-09T14:10:19;19.90;70.80
51661;DHT22;37741;49.748;8.490;2023-10-09T14:12:51;19.90;70.80
51661;DHT22;37741;49.748;8.490;2023-10-09T14:15:19;20.00;70.40
51661;DHT22;37741;49.748;8.490;2023-10-09T14:17:45;20.00;70.70
51661;DHT22;37741;49.748;8.490;2023-10-09T14:20:12;20.00;70.70
51661;DHT22;37741;49.748;8.490;2023-10-09T14:23:00;20.10;70.50
51661;DHT22;37741;49.748;8.490;2023-10-09T14:25:36;20.20;70.40
51661;DHT22;37741;49.748;8.490;2023-10-09T14:28:06;20.20;70.40
51661;DHT22;37741;49.748;8.490;2023-10-09T14:30:38;20.20;70.00
51661;DHT22;37741;49.748;8.490;2023-10-09T14:33:13;20.20;69.30
51661;DHT22;37741;49.748;8.490;2023-10-09T14:35:44;20.30;69.00
51661;DHT22;37741;49.748;8.490;2023-10-09T14:38:10;20.30;68.60
51661;DHT22;37741;49.748;8.490;2023-10-09T14:40:44;20.40;68.20
51661;DHT22;37741;49.748;8.490;2023-10-09T14:43:11;20.40;67.90
51661;DHT22;37741;49.748;8.490;2023-10-09T14:45:48;20.50;67.80
51661;DHT22;37741;49.748;8.490;2023-10-09T14:48:16;20.50;67.40
51661;DHT22;37741;49.748;8.490;2023-10-09T14:50:48;20.50;67.30
51661;DHT22;37741;49.748;8.490;2023-10-09T14:53:14;20.60;67.00
51661;DHT22;37741;49.748;8.490;2023-10-09T14:55:41;20.60;66.30
51661;DHT22;37741;49.748;8.490;2023-10-09T14:58:11;20.60;66.40
51661;DHT22;37741;49.748;8.490;2023-10-09T15:00:37;20.70;66.00
51661;DHT22;37741;49.748;8.490;2023-10-09T15:03:04;20.70;66.20
51661;DHT22;37741;49.748;8.490;2023-10-09T15:05:29;20.70;66.30
51661;DHT22;37741;49.748;8.490;2023-10-09T15:07:57;20.80;66.40
51661;DHT22;37741;49.748;8.490;2023-10-09T15:10:23;20.80;66.10
51661;DHT22;37741;49.748;8.490;2023-10-09T15:12:49;20.80;66.40
51661;DHT22;37741;49.748;8.490;2023-10-09T15:15:15;20.80;66.50
51661;DHT22;37741;49.748;8.490;2023-10-09T15:17:42;20.80;66.20
51661;DHT22;37741;49.748;8.490;2023-10-09T15:20:13;20.80;66.30
51661;DHT22;37741;49.748;8.490;2023-10-09T15:22:44;20.90;66.40
51661;DHT22;37741;49.748;8.490;2023-10-09T15:25:13;20.90;66.00
51661;DHT22;37741;49.748;8.490;2023-10-09T15:28:01;20.90;66.30
51661;DHT22;37741;49.748;8.490;2023-10-09T15:30:38;20.90;65.70
51661;DHT22;37741;49.748;8.490;2023-10-09T15:33:08;20.90;66.00
51661;DHT22;37741;49.748;8.490;2023-10-09T15:35:36;20.90;66.80
51661;DHT22;37741;49.748;8.490;2023-10-09T15:38:03;20.90;65.60
51661;DHT22;37741;49.748;8.490;2023-10-09T15:40:31;21.00;65.80
51661;DHT22;37741;49.748;8.490;2023-10-09T15:43:02;21.00;66.10
51661;DHT22;37741;49.748;8.490;2023-10-09T15:45:30;21.00;66.30
51661;DHT22;37741;49.748;8.490;2023-10-09T15:47:57;21.00;66.40
51661;DHT22;37741;49.748;8.490;2023-10-09T15:50:24;21.00;67.20
51661;DHT22;37741;49.748;8.490;2023-10-09T15:52:54;21.00;66.20
51661;DHT22;37741;49.748;8.490;2023-10-09T15:55:23;21.00;65.50
51661;DHT22;37741;49.748;8.490;2023-10-09T15:57:51;21.00;65.00
51661;DHT22;37741;49.748;8.490;2023-10-09T16:00:18;21.00;65.60
51661;DHT22;37741;49.748;8.490;2023-10-09T16:02:46;21.00;65.90
51661;DHT22;37741;49.748;8.490;2023-10-09T16:05:12;21.00;65.60
51661;DHT22;37741;49.748;8.490;2023-10-09T16:07:39;21.00;66.50
51661;DHT22;37741;49.748;8.490;2023-10-09T16:10:09;21.00;66.40
51661;DHT22;37741;49.748;8.490;2023-10-09T16:12:37;21.10;67.20
51661;DHT22;37741;49.748;8.490;2023-10-09T16:15:03;21.10;66.80
51661;DHT22;37741;49.748;8.490;2023-10-09T16:17:31;21.00;66.40
51661;DHT22;37741;49.748;8.490;2023-10-09T16:19:58;21.00;66.90
51661;DHT22;37741;49.748;8.490;2023-10-09T16:22:25;21.00;66.70
51661;DHT22;37741;49.748;8.490;2023-10-09T16:24:59;21.10;66.90
51661;DHT22;37741;49.748;8.490;2023-10-09T16:27:26;21.00;67.70
51661;DHT22;37741;49.748;8.490;2023-10-09T16:29:53;21.00;67.20
51661;DHT22;37741;49.748;8.490;2023-10-09T16:32:20;21.00;67.70
51661;DHT22;37741;49.748;8.490;2023-10-09T16:34:53;21.00;67.20